Time;durP1;ratioP1;P1;durP2;ratioP2;P2;SDS_P1;SDS_P2;PMS_P1;PMS_P2;Temp;Humidity;BMP_temperature;BMP_pressure;BME280_temperature;BME280_humidity;BME280_pressure;Samples;Min_cycle;Max_cycle;Signal;HPM_P1;HPM_P2
2021/11/21 00:02:04;;;;;;;0.25;0.10;;;;;;;;;;5033650;28;20071;-63
2021/11/21 00:04:29;;;;;;;1.75;0.10;;;;;;;;;;5033917;28;20404;-65
2021/11/21 00:06:54;;;;;;;0.23;0.10;;;;;;;;;;5033835;28;20026;-64
2021/11/21 00:09:19;;;;;;;0.98;0.15;;;;;;;;;;5033755;28;20331;-64
2021/11/21 00:11:45;;;;;;;1.58;0.40;;;;;;;;;;5034040;28;20021;-63
2021/11/21 00:14:10;;;;;;;0.75;0.10;;;;;;;;;;5033545;28;20468;-65
2021/11/21 00:16:36;;;;;;;0.38;0.08;;;;;;;;;;5034204;28;20052;-63
2021/11/21 00:19:02;;;;;;;0.68;0.20;;;;;;;;;;5033512;28;20029;-64
2021/11/21 00:21:27;;;;;;;0.70;0.38;;;;;;;;;;5033848;28;20052;-64
2021/11/21 00:23:53;;;;;;;0.47;0.25;;;;;;;;;;5033394;28;20021;-64
2021/11/21 00:26:18;;;;;;;0.35;0.13;;;;;;;;;;5033618;28;20052;-63
2021/11/21 00:28:44;;;;;;;1.60;0.47;;;;;;;;;;5033671;28;20021;-63
2021/11/21 00:31:10;;;;;;;0.43;0.20;;;;;;;;;;5033337;28;20028;-64
2021/11/21 00:33:35;;;;;;;0.38;0.10;;;;;;;;;;5033531;28;20025;-64
2021/11/21 00:36:00;;;;;;;1.08;0.22;;;;;;;;;;5032954;28;20417;-65
2021/11/21 00:38:26;;;;;;;1.38;0.73;;;;;;;;;;5033448;28;20049;-63
2021/11/21 00:40:52;;;;;;;0.20;0.20;;;;;;;;;;5033007;28;20037;-64
2021/11/21 00:43:19;;;;;;;0.32;0.10;;;;;;;;;;5033526;28;20018;-64
2021/11/21 00:45:45;;;;;;;1.05;0.38;;;;;;;;;;5033196;28;20477;-65
2021/11/21 00:48:10;;;;;;;0.30;0.20;;;;;;;;;;5033303;28;20025;-63
2021/11/21 00:50:35;;;;;;;0.20;0.10;;;;;;;;;;5033319;28;20021;-65
2021/11/21 00:53:04;;;;;;;0.25;0.10;;;;;;;;;;5032937;28;20128;-64
2021/11/21 00:55:34;;;;;;;0.35;0.00;;;;;;;;;;5033335;28;20063;-64
2021/11/21 00:57:59;;;;;;;1.33;0.10;;;;;;;;;;5032987;28;20029;-64
2021/11/21 01:00:24;;;;;;;1.13;0.20;;;;;;;;;;5033016;28;20017;-64
2021/11/21 01:02:49;;;;;;;0.65;0.20;;;;;;;;;;5033091;28;20044;-64
2021/11/21 01:05:15;;;;;;;0.68;0.20;;;;;;;;;;5031569;28;20476;-63
2021/11/21 01:07:40;;;;;;;2.22;0.60;;;;;;;;;;5033203;28;20100;-64
2021/11/21 01:10:10;;;;;;;0.60;0.10;;;;;;;;;;5032591;28;20056;-64
2021/11/21 01:12:35;;;;;;;0.40;0.10;;;;;;;;;;5032882;28;20026;-63
2021/11/21 01:15:01;;;;;;;1.55;0.20;;;;;;;;;;5033053;28;20129;-64
2021/11/21 01:17:26;;;;;;;0.52;0.22;;;;;;;;;;5033018;28;20041;-63
2021/11/21 01:19:52;;;;;;;0.70;0.30;;;;;;;;;;5032711;28;20021;-64
2021/11/21 01:22:17;;;;;;;0.25;0.10;;;;;;;;;;5033058;28;20411;-63
2021/11/21 01:24:42;;;;;;;0.63;0.35;;;;;;;;;;5033070;28;20018;-64
2021/11/21 01:27:07;;;;;;;1.00;0.30;;;;;;;;;;5032881;28;20026;-64
2021/11/21 01:29:33;;;;;;;1.20;0.25;;;;;;;;;;5032948;28;20018;-64
2021/11/21 01:31:59;;;;;;;0.98;0.40;;;;;;;;;;5032789;28;20469;-63
2021/11/21 01:34:24;;;;;;;1.50;0.17;;;;;;;;;;5032956;28;20052;-64
2021/11/21 01:36:49;;;;;;;0.85;0.20;;;;;;;;;;5032807;28;20453;-64
2021/11/21 01:39:15;;;;;;;1.13;0.20;;;;;;;;;;5032311;28;20472;-63
2021/11/21 01:41:40;;;;;;;0.43;0.20;;;;;;;;;;5032997;28;20088;-64
2021/11/21 01:44:07;;;;;;;2.30;0.20;;;;;;;;;;5032421;28;20021;-64
2021/11/21 01:46:33;;;;;;;0.08;0.08;;;;;;;;;;5032868;28;20028;-65
2021/11/21 01:48:59;;;;;;;0.28;0.00;;;;;;;;;;5032856;28;20027;-63
2021/11/21 01:51:24;;;;;;;0.82;0.20;;;;;;;;;;5032684;28;20025;-64
2021/11/21 01:53:49;;;;;;;0.63;0.15;;;;;;;;;;5032778;28;20101;-64
2021/11/21 01:56:15;;;;;;;0.30;0.13;;;;;;;;;;5032517;28;20029;-64
2021/11/21 01:58:40;;;;;;;0.80;0.10;;;;;;;;;;5032526;28;20401;-63
2021/11/21 02:01:05;;;;;;;0.43;0.13;;;;;;;;;;5032592;28;20022;-64
2021/11/21 02:03:30;;;;;;;0.52;0.10;;;;;;;;;;5033629;28;20045;-64
2021/11/21 02:05:56;;;;;;;1.07;0.10;;;;;;;;;;5035998;28;20021;-64
2021/11/21 02:08:21;;;;;;;0.32;0.10;;;;;;;;;;5036341;28;20026;-63
2021/11/21 02:10:46;;;;;;;0.75;0.20;;;;;;;;;;5036337;28;20029;-64
2021/11/21 02:13:12;;;;;;;1.48;0.28;;;;;;;;;;5035993;28;20037;-64
2021/11/21 02:15:38;;;;;;;0.65;0.20;;;;;;;;;;5036078;28;20482;-63
2021/11/21 02:18:04;;;;;;;1.35;0.35;;;;;;;;;;5035892;28;20383;-64
2021/11/21 02:20:32;;;;;;;1.13;0.10;;;;;;;;;;5035775;28;20033;-64
2021/11/21 02:22:57;;;;;;;0.40;0.10;;;;;;;;;;5035669;28;20104;-67
2021/11/21 02:25:23;;;;;;;0.88;0.20;;;;;;;;;;5035673;28;20101;-63
2021/11/21 02:27:48;;;;;;;0.05;0.00;;;;;;;;;;5035925;28;20029;-64
2021/11/21 02:30:13;;;;;;;0.93;0.10;;;;;;;;;;5035441;28;20033;-64
2021/11/21 02:32:43;;;;;;;1.48;0.10;;;;;;;;;;5035956;28;20078;-65
2021/11/21 02:35:08;;;;;;;0.20;0.10;;;;;;;;;;5035629;28;20033;-63
2021/11/21 02:37:37;;;;;;;0.68;0.10;;;;;;;;;;5035492;28;20018;-64
2021/11/21 02:40:03;;;;;;;1.55;0.47;;;;;;;;;;5035123;28;20456;-64
2021/11/21 02:42:30;;;;;;;0.93;0.00;;;;;;;;;;5035774;28;20021;-63
2021/11/21 02:44:55;;;;;;;0.82;0.10;;;;;;;;;;5035529;28;20018;-64
2021/11/21 02:47:21;;;;;;;0.60;0.10;;;;;;;;;;5035482;28;20029;-64
2021/11/21 02:49:46;;;;;;;1.58;0.10;;;;;;;;;;5035582;28;20358;-65
2021/11/21 02:52:12;;;;;;;0.28;0.00;;;;;;;;;;5035386;28;20029;-63
2021/11/21 02:54:37;;;;;;;1.55;0.25;;;;;;;;;;5035488;28;20025;-64
2021/11/21 02:57:03;;;;;;;1.75;0.75;;;;;;;;;;5035120;28;20063;-64
2021/11/21 02:59:29;;;;;;;0.10;0.08;;;;;;;;;;5035296;28;20026;-65
2021/11/21 03:01:54;;;;;;;1.02;0.10;;;;;;;;;;5035212;28;20027;-63
2021/11/21 03:04:23;;;;;;;0.82;0.20;;;;;;;;;;5034884;28;20038;-65
2021/11/21 03:06:48;;;;;;;0.25;0.10;;;;;;;;;;5035059;28;20017;-64
2021/11/21 03:09:19;;;;;;;0.47;0.10;;;;;;;;;;5034648;28;20530;-64
2021/11/21 03:11:45;;;;;;;0.30;0.10;;;;;;;;;;5034977;28;20040;-63
2021/11/21 03:14:10;;;;;;;1.23;0.20;;;;;;;;;;5034801;28;20656;-64
2021/11/21 03:16:35;;;;;;;0.90;0.10;;;;;;;;;;5034615;28;20031;-64
2021/11/21 03:19:00;;;;;;;1.05;0.40;;;;;;;;;;5033565;28;20048;-63
2021/11/21 03:21:26;;;;;;;0.63;0.10;;;;;;;;;;5034984;28;20025;-65
2021/11/21 03:23:52;;;;;;;0.47;0.00;;;;;;;;;;5033586;28;20262;-64
2021/11/21 03:26:19;;;;;;;0.00;0.00;;;;;;;;;;5034690;28;20544;-64
2021/11/21 03:28:44;;;;;;;0.65;0.20;;;;;;;;;;5034726;28;20100;-64
2021/11/21 03:31:09;;;;;;;1.23;0.10;;;;;;;;;;5034703;28;20065;-65
2021/11/21 03:33:35;;;;;;;0.20;0.10;;;;;;;;;;5034595;28;20265;-63
2021/11/21 03:36:00;;;;;;;0.30;0.10;;;;;;;;;;5034599;28;20052;-64
2021/11/21 03:38:25;;;;;;;0.65;0.32;;;;;;;;;;5034239;28;20032;-64
2021/11/21 03:40:50;;;;;;;0.68;0.13;;;;;;;;;;5034545;28;20464;-65
2021/11/21 03:43:16;;;;;;;0.35;0.10;;;;;;;;;;5034284;28;20035;-64
2021/11/21 03:45:41;;;;;;;1.02;0.10;;;;;;;;;;5034511;28;20021;-65
2021/11/21 03:48:06;;;;;;;0.82;0.08;;;;;;;;;;5033455;28;20033;-65
2021/11/21 03:50:31;;;;;;;0.57;0.20;;;;;;;;;;5034423;28;20029;-65
2021/11/21 03:52:57;;;;;;;1.17;0.28;;;;;;;;;;5034327;28;20025;-64
2021/11/21 03:55:23;;;;;;;0.40;0.10;;;;;;;;;;5034292;28;20019;-64
2021/11/21 03:57:48;;;;;;;1.08;0.03;;;;;;;;;;5034073;28;20624;-65
2021/11/21 04:00:18;;;;;;;1.13;0.28;;;;;;;;;;5034113;28;20068;-65
2021/11/21 04:02:43;;;;;;;0.57;0.43;;;;;;;;;;5032689;28;20514;-64
2021/11/21 04:05:09;;;;;;;0.40;0.08;;;;;;;;;;5033932;28;20017;-65
2021/11/21 04:07:35;;;;;;;0.20;0.10;;;;;;;;;;5034107;28;20025;-65
2021/11/21 04:10:00;;;;;;;0.47;0.30;;;;;;;;;;5033499;28;20499;-64
2021/11/21 04:12:27;;;;;;;0.28;0.25;;;;;;;;;;5034016;28;20030;-64
2021/11/21 04:14:52;;;;;;;0.32;0.15;;;;;;;;;;5033578;28;20026;-65
2021/11/21 04:17:17;;;;;;;0.50;0.10;;;;;;;;;;5033412;28;20063;-65
2021/11/21 04:19:43;;;;;;;1.55;0.30;;;;;;;;;;5033943;28;20698;-65
2021/11/21 04:22:08;;;;;;;0.25;0.10;;;;;;;;;;5033506;28;20544;-64
2021/11/21 04:24:33;;;;;;;0.40;0.10;;;;;;;;;;5033886;28;20021;-65
2021/11/21 04:26:59;;;;;;;0.05;0.00;;;;;;;;;;5033201;28;20140;-65
2021/11/21 04:29:24;;;;;;;1.50;0.20;;;;;;;;;;5033655;28;20032;-65
2021/11/21 04:31:52;;;;;;;1.35;0.00;;;;;;;;;;5033695;28;20025;-64
2021/11/21 04:34:17;;;;;;;1.35;0.20;;;;;;;;;;5033549;28;20017;-65
2021/11/21 04:36:42;;;;;;;0.63;0.10;;;;;;;;;;5033536;28;20100;-65
2021/11/21 04:39:07;;;;;;;0.15;0.10;;;;;;;;;;5032958;28;20606;-64
2021/11/21 04:41:33;;;;;;;1.15;0.10;;;;;;;;;;5033522;28;20368;-64
2021/11/21 04:43:58;;;;;;;0.95;0.20;;;;;;;;;;5033029;28;20060;-65
2021/11/21 04:46:24;;;;;;;0.68;0.20;;;;;;;;;;5033450;28;20446;-66
2021/11/21 04:48:49;;;;;;;0.20;0.10;;;;;;;;;;5033189;28;20071;-65
2021/11/21 04:51:14;;;;;;;0.40;0.13;;;;;;;;;;5033287;28;20538;-64
2021/11/21 04:53:40;;;;;;;1.38;0.30;;;;;;;;;;5033214;28;20052;-64
2021/11/21 04:56:05;;;;;;;0.47;0.20;;;;;;;;;;5033037;28;20036;-65
2021/11/21 04:58:30;;;;;;;1.27;0.10;;;;;;;;;;5033215;28;20025;-64
2021/11/21 05:00:55;;;;;;;0.27;0.10;;;;;;;;;;5033083;28;20053;-64
2021/11/21 05:03:21;;;;;;;0.55;0.30;;;;;;;;;;5033051;28;20279;-64
2021/11/21 05:05:46;;;;;;;0.60;0.10;;;;;;;;;;5033188;28;20021;-65
2021/11/21 05:08:11;;;;;;;0.47;0.20;;;;;;;;;;5032902;28;20033;-65
2021/11/21 05:10:36;;;;;;;0.38;0.20;;;;;;;;;;5033038;28;20051;-64
2021/11/21 05:13:01;;;;;;;0.38;0.00;;;;;;;;;;5032988;28;20057;-65
2021/11/21 05:15:27;;;;;;;0.10;0.10;;;;;;;;;;5033008;28;20468;-65
2021/11/21 05:17:53;;;;;;;0.35;0.20;;;;;;;;;;5033005;28;20020;-65
2021/11/21 05:20:19;;;;;;;1.83;0.55;;;;;;;;;;5032984;28;20060;-65
2021/11/21 05:22:45;;;;;;;0.73;0.32;;;;;;;;;;5033109;28;20041;-64
2021/11/21 05:25:10;;;;;;;0.25;0.10;;;;;;;;;;5032721;28;20414;-65
2021/11/21 05:27:35;;;;;;;2.28;0.20;;;;;;;;;;5033000;28;20056;-65
2021/11/21 05:30:01;;;;;;;1.05;0.17;;;;;;;;;;5032533;28;20476;-66
2021/11/21 05:32:28;;;;;;;1.95;0.52;;;;;;;;;;5033015;28;20091;-64
2021/11/21 05:34:53;;;;;;;0.15;0.00;;;;;;;;;;5032921;28;20021;-65
2021/11/21 05:37:18;;;;;;;0.40;0.10;;;;;;;;;;5032627;28;20641;-65
2021/11/21 05:39:44;;;;;;;0.57;0.10;;;;;;;;;;5036080;28;20041;-65
2021/11/21 05:42:09;;;;;;;0.82;0.10;;;;;;;;;;5036239;28;20044;-64
2021/11/21 05:44:34;;;;;;;0.10;0.10;;;;;;;;;;5036806;28;20464;-65
2021/11/21 05:46:59;;;;;;;0.60;0.15;;;;;;;;;;5036619;28;20013;-65
2021/11/21 05:49:25;;;;;;;0.32;0.10;;;;;;;;;;5036550;28;20079;-65
2021/11/21 05:51:50;;;;;;;0.77;0.10;;;;;;;;;;5036603;28;20022;-64
2021/11/21 05:54:15;;;;;;;0.77;0.20;;;;;;;;;;5036340;28;20053;-65
2021/11/21 05:56:40;;;;;;;0.35;0.10;;;;;;;;;;5036705;28;20461;-65
2021/11/21 05:59:06;;;;;;;0.75;0.17;;;;;;;;;;5035933;28;20026;-65
2021/11/21 06:01:31;;;;;;;1.23;0.30;;;;;;;;;;5036467;28;20096;-65
2021/11/21 06:03:57;;;;;;;1.75;0.20;;;;;;;;;;5036010;28;20406;-65
2021/11/21 06:06:22;;;;;;;2.22;0.20;;;;;;;;;;5036130;28;20017;-65
2021/11/21 06:08:48;;;;;;;0.35;0.10;;;;;;;;;;5036194;28;20029;-65
2021/11/21 06:11:13;;;;;;;0.40;0.28;;;;;;;;;;5035886;28;20104;-65
2021/11/21 06:13:39;;;;;;;0.40;0.08;;;;;;;;;;5036169;28;20027;-65
2021/11/21 06:16:04;;;;;;;0.65;0.28;;;;;;;;;;5035985;28;20068;-65
2021/11/21 06:18:29;;;;;;;1.20;0.20;;;;;;;;;;5036047;28;20030;-65
2021/11/21 06:20:55;;;;;;;0.68;0.10;;;;;;;;;;5036127;28;20021;-65
2021/11/21 06:23:20;;;;;;;1.07;0.20;;;;;;;;;;5036059;28;20025;-64
2021/11/21 06:25:45;;;;;;;1.27;0.13;;;;;;;;;;5035715;28;20409;-65
2021/11/21 06:28:11;;;;;;;0.35;0.10;;;;;;;;;;5035801;28;20075;-65
2021/11/21 06:30:37;;;;;;;0.98;0.10;;;;;;;;;;5035799;28;20013;-65
2021/11/21 06:33:03;;;;;;;0.98;0.20;;;;;;;;;;5035771;28;20468;-65
2021/11/21 06:35:28;;;;;;;1.35;0.28;;;;;;;;;;5035467;28;20076;-65
2021/11/21 06:37:53;;;;;;;0.93;0.20;;;;;;;;;;5035252;28;20103;-65
2021/11/21 06:40:19;;;;;;;0.40;0.10;;;;;;;;;;5035605;28;20018;-65
2021/11/21 06:42:44;;;;;;;0.52;0.00;;;;;;;;;;5035746;28;20400;-65
2021/11/21 06:45:10;;;;;;;1.85;0.10;;;;;;;;;;5035092;28;20116;-65
2021/11/21 06:47:36;;;;;;;1.35;0.17;;;;;;;;;;5035651;28;20358;-65
2021/11/21 06:50:02;;;;;;;1.20;0.13;;;;;;;;;;5034945;28;20076;-64
2021/11/21 06:52:30;;;;;;;1.10;0.10;;;;;;;;;;5034342;28;20121;-65
2021/11/21 06:54:55;;;;;;;0.63;0.10;;;;;;;;;;5035434;28;20013;-65
2021/11/21 06:57:21;;;;;;;0.40;0.28;;;;;;;;;;5035040;28;20025;-65
2021/11/21 06:59:46;;;;;;;0.73;0.17;;;;;;;;;;5035508;28;20092;-64
2021/11/21 07:02:12;;;;;;;0.55;0.10;;;;;;;;;;5034683;28;20465;-64
2021/11/21 07:04:37;;;;;;;1.50;0.33;;;;;;;;;;5035242;28;20430;-65
2021/11/21 07:07:06;;;;;;;0.15;0.10;;;;;;;;;;5035099;28;20021;-64
2021/11/21 07:09:31;;;;;;;0.70;0.20;;;;;;;;;;5034942;28;20030;-64
2021/11/21 07:11:56;;;;;;;0.30;0.10;;;;;;;;;;5034960;28;20056;-66
2021/11/21 07:14:22;;;;;;;0.45;0.10;;;;;;;;;;5034630;28;20047;-65
2021/11/21 07:16:49;;;;;;;2.22;0.20;;;;;;;;;;5035054;28;20116;-65
2021/11/21 07:19:14;;;;;;;0.68;0.15;;;;;;;;;;5034730;28;20017;-64
2021/11/21 07:21:40;;;;;;;0.30;0.00;;;;;;;;;;5034954;28;20025;-65
2021/11/21 07:24:05;;;;;;;0.50;0.10;;;;;;;;;;5033148;28;20026;-65
2021/11/21 07:26:30;;;;;;;0.45;0.30;;;;;;;;;;5035027;28;20021;-64
2021/11/21 07:28:55;;;;;;;0.35;0.10;;;;;;;;;;5034694;28;20112;-64
2021/11/21 07:31:21;;;;;;;0.85;0.20;;;;;;;;;;5034684;28;20033;-66
2021/11/21 07:33:46;;;;;;;0.28;0.17;;;;;;;;;;5034628;28;20068;-65
2021/11/21 07:36:11;;;;;;;1.15;0.28;;;;;;;;;;5034269;28;20056;-64
2021/11/21 07:38:37;;;;;;;0.28;0.13;;;;;;;;;;5034197;28;20057;-64
2021/11/21 07:41:02;;;;;;;0.40;0.10;;;;;;;;;;5034501;28;20018;-65
2021/11/21 07:43:28;;;;;;;0.75;0.22;;;;;;;;;;5033121;28;20029;-65
2021/11/21 07:45:54;;;;;;;0.70;0.05;;;;;;;;;;5032854;28;20044;-65
2021/11/21 07:48:20;;;;;;;0.65;0.10;;;;;;;;;;5034377;28;20025;-64
2021/11/21 07:50:45;;;;;;;0.70;0.20;;;;;;;;;;5034421;28;20411;-65
2021/11/21 07:53:10;;;;;;;1.38;0.20;;;;;;;;;;5033056;28;20112;-65
2021/11/21 07:55:36;;;;;;;0.80;0.28;;;;;;;;;;5033923;28;20484;-65
2021/11/21 07:58:01;;;;;;;1.40;0.20;;;;;;;;;;5034025;28;20029;-65
2021/11/21 08:00:26;;;;;;;0.57;0.20;;;;;;;;;;5033869;28;20030;-65
2021/11/21 08:02:52;;;;;;;0.65;0.10;;;;;;;;;;5033735;28;20049;-65
2021/11/21 08:05:17;;;;;;;2.85;0.50;;;;;;;;;;5034067;28;20022;-65
2021/11/21 08:07:43;;;;;;;0.65;0.17;;;;;;;;;;5033888;28;20072;-64
2021/11/21 08:10:08;;;;;;;0.20;0.17;;;;;;;;;;5033891;28;20025;-65
2021/11/21 08:12:34;;;;;;;1.25;0.25;;;;;;;;;;5033823;28;20381;-65
2021/11/21 08:14:59;;;;;;;0.57;0.10;;;;;;;;;;5033755;28;20333;-65
2021/11/21 08:17:24;;;;;;;0.85;0.25;;;;;;;;;;5033600;28;20047;-65
2021/11/21 08:19:49;;;;;;;0.82;0.10;;;;;;;;;;5033794;28;20021;-65
2021/11/21 08:22:14;;;;;;;1.33;0.30;;;;;;;;;;5033523;28;20361;-65
2021/11/21 08:24:40;;;;;;;1.65;0.25;;;;;;;;;;5033996;28;20468;-65
2021/11/21 08:27:05;;;;;;;0.77;0.20;;;;;;;;;;5033316;28;20029;-64
2021/11/21 08:29:30;;;;;;;1.27;0.10;;;;;;;;;;5033739;28;20021;-64
2021/11/21 08:31:56;;;;;;;1.42;0.43;;;;;;;;;;5033375;28;20029;-65
2021/11/21 08:34:22;;;;;;;0.40;0.40;;;;;;;;;;5033554;28;20400;-65
2021/11/21 08:36:49;;;;;;;0.68;0.20;;;;;;;;;;5033427;28;20029;-65
2021/11/21 08:39:14;;;;;;;0.70;0.20;;;;;;;;;;5033293;28;20074;-64
2021/11/21 08:41:40;;;;;;;1.55;0.20;;;;;;;;;;5033440;28;20017;-65
2021/11/21 08:44:05;;;;;;;0.57;0.10;;;;;;;;;;5033221;28;20029;-65
2021/11/21 08:46:30;;;;;;;0.68;0.30;;;;;;;;;;5033426;28;20026;-65
2021/11/21 08:48:55;;;;;;;0.95;0.20;;;;;;;;;;5031666;28;20040;-65
2021/11/21 08:51:21;;;;;;;0.50;0.10;;;;;;;;;;5033269;28;20025;-65
2021/11/21 08:53:47;;;;;;;0.50;0.20;;;;;;;;;;5032095;28;20095;-65
2021/11/21 08:56:12;;;;;;;2.60;0.30;;;;;;;;;;5033077;28;20034;-65
2021/11/21 08:58:38;;;;;;;0.65;0.20;;;;;;;;;;5033287;28;20022;-66
2021/11/21 09:01:03;;;;;;;0.65;0.10;;;;;;;;;;5032985;28;20072;-65
2021/11/21 09:03:30;;;;;;;0.43;0.10;;;;;;;;;;5033234;28;20091;-65
2021/11/21 09:05:55;;;;;;;1.38;0.20;;;;;;;;;;5033012;28;20009;-64
2021/11/21 09:08:20;;;;;;;0.40;0.20;;;;;;;;;;5032986;28;20536;-65
2021/11/21 09:10:45;;;;;;;1.40;0.40;;;;;;;;;;5033151;28;20018;-65
2021/11/21 09:13:11;;;;;;;0.38;0.10;;;;;;;;;;5035242;28;20075;-64
2021/11/21 09:15:37;;;;;;;1.05;0.10;;;;;;;;;;5036052;28;20021;-65
2021/11/21 09:18:02;;;;;;;0.40;0.08;;;;;;;;;;5036703;28;20618;-65
2021/11/21 09:20:27;;;;;;;0.98;0.30;;;;;;;;;;5037279;28;20029;-65
2021/11/21 09:22:53;;;;;;;0.13;0.05;;;;;;;;;;5037117;28;20017;-64
2021/11/21 09:25:19;;;;;;;0.30;0.20;;;;;;;;;;5036712;28;20010;-65
2021/11/21 09:27:44;;;;;;;1.23;0.40;;;;;;;;;;5035956;28;20021;-65
2021/11/21 09:30:10;;;;;;;1.40;0.20;;;;;;;;;;5036419;28;20352;-64
2021/11/21 09:32:36;;;;;;;0.85;0.00;;;;;;;;;;5036672;28;20033;-64
2021/11/21 09:35:02;;;;;;;0.88;0.17;;;;;;;;;;5036849;28;20096;-65
2021/11/21 09:37:27;;;;;;;1.27;0.32;;;;;;;;;;5036689;28;20144;-64
2021/11/21 09:39:53;;;;;;;0.50;0.10;;;;;;;;;;5036486;28;20029;-64
2021/11/21 09:42:18;;;;;;;0.50;0.25;;;;;;;;;;5036636;28;20026;-66
2021/11/21 09:44:43;;;;;;;0.63;0.23;;;;;;;;;;5036816;28;20407;-65
2021/11/21 09:47:08;;;;;;;1.25;0.10;;;;;;;;;;5036593;28;20254;-65
2021/11/21 09:49:34;;;;;;;0.50;0.20;;;;;;;;;;5036351;28;20052;-64
2021/11/21 09:51:59;;;;;;;0.65;0.10;;;;;;;;;;5036461;28;20021;-65
2021/11/21 09:54:26;;;;;;;1.20;0.52;;;;;;;;;;5036724;28;20056;-65
2021/11/21 09:56:51;;;;;;;1.08;0.30;;;;;;;;;;5035038;28;20021;-64
2021/11/21 09:59:36;;;;;;;1.20;0.10;;;;;;;;;;5035957;28;20022;-65
2021/11/21 10:02:15;;;;;;;0.65;0.25;;;;;;;;;;5036150;28;20259;-64
2021/11/21 10:04:43;;;;;;;0.38;0.08;;;;;;;;;;5036230;28;20060;-64
2021/11/21 10:07:28;;;;;;;0.70;0.20;;;;;;;;;;5036050;28;20017;-65
2021/11/21 10:09:54;;;;;;;1.02;0.10;;;;;;;;;;5036364;28;20369;-64
2021/11/21 10:12:19;;;;;;;1.30;0.10;;;;;;;;;;5036210;28;20025;-65
2021/11/21 10:15:03;;;;;;;0.20;0.00;;;;;;;;;;5036330;28;20013;-65
2021/11/21 10:17:30;;;;;;;0.52;0.22;;;;;;;;;;5035931;28;20021;-64
2021/11/21 10:20:13;;;;;;;0.95;0.20;;;;;;;;;;5035998;28;20495;-65
2021/11/21 10:22:52;;;;;;;1.98;0.22;;;;;;;;;;5035975;28;20453;-64
2021/11/21 10:25:33;;;;;;;0.47;0.10;;;;;;;;;;5035013;28;20009;-63
2021/11/21 10:28:02;;;;;;;0.17;0.10;;;;;;;;;;5035657;28;20090;-66
2021/11/21 10:30:29;;;;;;;0.38;0.10;;;;;;;;;;5035750;28;20025;-64
2021/11/21 10:32:54;;;;;;;1.30;0.10;;;;;;;;;;5035749;28;20025;-65
2021/11/21 10:35:22;;;;;;;0.88;0.20;;;;;;;;;;5035728;28;20033;-64
2021/11/21 10:37:47;;;;;;;1.52;0.28;;;;;;;;;;5035802;28;20128;-65
2021/11/21 10:40:14;;;;;;;0.35;0.10;;;;;;;;;;5035628;28;20010;-65
2021/11/21 10:42:41;;;;;;;0.93;0.10;;;;;;;;;;5035627;28;20033;-64
2021/11/21 10:45:07;;;;;;;0.10;0.00;;;;;;;;;;5035405;28;20018;-65
2021/11/21 10:47:43;;;;;;;0.80;0.30;;;;;;;;;;5035489;28;20033;-64
2021/11/21 10:50:10;;;;;;;1.42;0.35;;;;;;;;;;5035089;28;20369;-66
2021/11/21 10:52:43;;;;;;;1.40;0.10;;;;;;;;;;5035561;28;20037;-64
2021/11/21 10:55:12;;;;;;;1.20;0.20;;;;;;;;;;5035070;28;20013;-63
2021/11/21 10:57:38;;;;;;;2.63;0.55;;;;;;;;;;5035384;28;20032;-65
2021/11/21 11:00:12;;;;;;;1.03;0.27;;;;;;;;;;5035155;28;20365;-64
2021/11/21 11:02:37;;;;;;;;;;;;;;;;;;5035626;28;20317;-65
2021/11/21 11:05:07;;;;;;;1.00;0.20;;;;;;;;;;5035059;28;19909;-65
2021/11/21 11:07:44;;;;;;;0.20;0.20;;;;;;;;;;5035041;28;20026;-66
2021/11/21 11:10:13;;;;;;;0.50;0.03;;;;;;;;;;5034977;28;20021;-64
2021/11/21 11:12:39;;;;;;;0.35;0.10;;;;;;;;;;5035011;28;20009;-63
2021/11/21 11:15:05;;;;;;;0.95;0.50;;;;;;;;;;5035088;28;20019;-65
2021/11/21 11:17:31;;;;;;;0.50;0.15;;;;;;;;;;5034725;28;20021;-64
2021/11/21 11:19:57;;;;;;;0.43;0.20;;;;;;;;;;5034957;28;20383;-65
2021/11/21 11:22:23;;;;;;;1.42;0.20;;;;;;;;;;5034967;28;20499;-64
2021/11/21 11:24:49;;;;;;;0.40;0.10;;;;;;;;;;5034782;28;20037;-65
2021/11/21 11:27:32;;;;;;;0.50;0.20;;;;;;;;;;5034685;28;20025;-64
2021/11/21 11:29:58;;;;;;;0.38;0.13;;;;;;;;;;5034792;28;20036;-63
2021/11/21 11:32:42;;;;;;;1.15;0.20;;;;;;;;;;5034400;28;20108;-66
2021/11/21 11:35:07;;;;;;;;;;;;;;;;;;5034987;28;20384;-64
2021/11/21 11:37:38;;;;;;;0.40;0.10;;;;;;;;;;5034527;28;19905;-65
2021/11/21 11:40:05;;;;;;;1.70;0.52;;;;;;;;;;5034409;28;20056;-66
2021/11/21 11:42:37;;;;;;;0.50;0.10;;;;;;;;;;5034597;28;20021;-64
2021/11/21 11:45:07;;;;;;;0.85;0.38;;;;;;;;;;5034151;28;20412;-65
2021/11/21 11:47:33;;;;;;;1.33;0.10;;;;;;;;;;5034266;28;20029;-63
2021/11/21 11:49:59;;;;;;;0.60;0.20;;;;;;;;;;5034066;28;20013;-65
2021/11/21 11:52:43;;;;;;;1.00;0.10;;;;;;;;;;5034276;28;20063;-64
2021/11/21 11:55:08;;;;;;;0.57;0.10;;;;;;;;;;5034281;28;20067;-63
2021/11/21 11:57:34;;;;;;;1.33;0.20;;;;;;;;;;5034270;28;20100;-66
2021/11/21 12:00:21;;;;;;;0.93;0.45;;;;;;;;;;5034043;28;20014;-65
2021/11/21 12:02:47;;;;;;;0.75;0.30;;;;;;;;;;4992163;28;20045;-64
2021/11/21 12:05:13;;;;;;;0.35;0.10;;;;;;;;;;4992485;28;20246;-64
2021/11/21 12:07:42;;;;;;;0.95;0.20;;;;;;;;;;4992045;28;20133;-64
2021/11/21 12:10:12;;;;;;;0.63;0.10;;;;;;;;;;4992318;28;20105;-65
2021/11/21 12:12:55;;;;;;;0.32;0.10;;;;;;;;;;4992555;28;20031;-63
2021/11/21 12:15:40;;;;;;;0.47;0.20;;;;;;;;;;4991954;28;20044;-65
2021/11/21 12:18:06;;;;;;;0.22;0.10;;;;;;;;;;4914954;29;20127;-65
2021/11/21 12:20:40;;;;;;;1.58;0.20;;;;;;;;;;4915499;29;20028;-64
2021/11/21 12:23:06;;;;;;;0.38;0.10;;;;;;;;;;4915089;29;20088;-64
2021/11/21 12:25:31;;;;;;;0.25;0.08;;;;;;;;;;4915275;29;20496;-65
2021/11/21 12:27:57;;;;;;;0.30;0.10;;;;;;;;;;4915101;29;20115;-63
2021/11/21 12:30:24;;;;;;;0.25;0.10;;;;;;;;;;4915029;29;20766;-67
2021/11/21 12:32:50;;;;;;;0.75;0.40;;;;;;;;;;4915101;29;20393;-64
2021/11/21 12:35:22;;;;;;;0.10;0.00;;;;;;;;;;4915123;29;20043;-65
2021/11/21 12:37:49;;;;;;;0.75;0.17;;;;;;;;;;4915040;29;20028;-65
2021/11/21 12:40:14;;;;;;;0.30;0.10;;;;;;;;;;4911322;29;20652;-64
2021/11/21 12:42:41;;;;;;;0.70;0.10;;;;;;;;;;4934227;29;20056;-65
2021/11/21 12:45:09;;;;;;;1.70;0.28;;;;;;;;;;4933541;29;20116;-64
2021/11/21 12:47:35;;;;;;;0.57;0.13;;;;;;;;;;4933531;29;20071;-66
2021/11/21 12:50:00;;;;;;;0.68;0.22;;;;;;;;;;4933994;29;20103;-64
2021/11/21 12:52:25;;;;;;;0.52;0.10;;;;;;;;;;4933997;29;20583;-65
2021/11/21 12:54:51;;;;;;;2.35;0.55;;;;;;;;;;4962158;28;20030;-65
2021/11/21 12:57:17;;;;;;;0.68;0.20;;;;;;;;;;5013494;28;20041;-65
2021/11/21 12:59:48;;;;;;;0.57;0.20;;;;;;;;;;5013286;28;20478;-64
2021/11/21 13:02:14;;;;;;;0.32;0.10;;;;;;;;;;5013220;28;20097;-64
2021/11/21 13:04:59;;;;;;;0.57;0.10;;;;;;;;;;5013357;28;20029;-70
2021/11/21 13:07:36;;;;;;;1.38;0.30;;;;;;;;;;5013455;28;20014;-64
2021/11/21 13:10:09;;;;;;;2.10;0.20;;;;;;;;;;5013049;28;20014;-63
2021/11/21 13:12:38;;;;;;;0.10;0.10;;;;;;;;;;5013413;28;20017;-66
2021/11/21 13:15:05;;;;;;;0.80;0.10;;;;;;;;;;5013049;28;20021;-64
2021/11/21 13:17:31;;;;;;;0.88;0.30;;;;;;;;;;5013181;28;20021;-65
2021/11/21 13:20:00;;;;;;;1.70;0.70;;;;;;;;;;5013211;28;20029;-65
2021/11/21 13:22:44;;;;;;;1.08;0.10;;;;;;;;;;5013436;28;20030;-65
2021/11/21 13:25:09;;;;;;;;;;;;;;;;;;5013264;28;20041;-65
2021/11/21 13:27:36;;;;;;;0.87;0.20;;;;;;;;;;5013244;28;19952;-64
2021/11/21 13:30:11;;;;;;;1.35;0.17;;;;;;;;;;5012849;28;20247;-65
2021/11/21 13:32:36;;;;;;;0.50;0.10;;;;;;;;;;5013299;28;20018;-63
2021/11/21 13:35:15;;;;;;;0.30;0.10;;;;;;;;;;5013152;28;20021;-64
2021/11/21 13:37:40;;;;;;;0.43;0.10;;;;;;;;;;5012289;28;20255;-64
2021/11/21 13:40:05;;;;;;;1.08;0.25;;;;;;;;;;5029589;28;20017;-64
2021/11/21 13:42:31;;;;;;;0.20;0.00;;;;;;;;;;5033150;28;20029;-66
2021/11/21 13:44:56;;;;;;;0.30;0.15;;;;;;;;;;5032764;28;20465;-64
2021/11/21 13:47:26;;;;;;;1.23;0.20;;;;;;;;;;5032572;28;20068;-65
2021/11/21 13:49:54;;;;;;;1.23;0.30;;;;;;;;;;5032717;28;20068;-64
2021/11/21 13:52:22;;;;;;;1.08;0.20;;;;;;;;;;5032862;28;20349;-63
2021/11/21 13:54:49;;;;;;;1.55;0.32;;;;;;;;;;5032789;28;20108;-65
2021/11/21 13:57:19;;;;;;;0.32;0.20;;;;;;;;;;5032360;28;20033;-64
2021/11/21 13:59:44;;;;;;;2.25;0.22;;;;;;;;;;5034111;28;20025;-65
2021/11/21 14:02:09;;;;;;;1.20;0.20;;;;;;;;;;5036261;28;20021;-64
2021/11/21 14:04:35;;;;;;;1.55;0.30;;;;;;;;;;5036211;28;20769;-65
2021/11/21 14:07:11;;;;;;;0.30;0.10;;;;;;;;;;5036036;28;20005;-64
2021/11/21 14:09:55;;;;;;;0.93;0.13;;;;;;;;;;5036256;28;20527;-63
2021/11/21 14:12:32;;;;;;;0.50;0.17;;;;;;;;;;5036243;28;20025;-65
2021/11/21 14:15:21;;;;;;;0.82;0.25;;;;;;;;;;5036062;28;20025;-64
2021/11/21 14:17:46;;;;;;;1.10;0.28;;;;;;;;;;5030537;28;20071;-63
2021/11/21 14:20:31;;;;;;;1.02;0.20;;;;;;;;;;5035808;28;20101;-66
2021/11/21 14:23:04;;;;;;;0.43;0.15;;;;;;;;;;5035789;28;20058;-64
2021/11/21 14:25:30;;;;;;;0.98;0.47;;;;;;;;;;5036085;28;20010;-64
2021/11/21 14:28:06;;;;;;;1.42;0.10;;;;;;;;;;5035616;28;20021;-65
2021/11/21 14:30:32;;;;;;;0.98;0.38;;;;;;;;;;5036079;28;20025;-64
2021/11/21 14:33:16;;;;;;;1.00;0.20;;;;;;;;;;5035839;28;20021;-64
2021/11/21 14:35:43;;;;;;;1.55;0.22;;;;;;;;;;5035881;28;20044;-66
2021/11/21 14:38:09;;;;;;;0.28;0.10;;;;;;;;;;5035250;28;20036;-63
2021/11/21 14:40:35;;;;;;;1.20;0.40;;;;;;;;;;5035534;28;20010;-65
2021/11/21 14:43:00;;;;;;;0.50;0.20;;;;;;;;;;5035627;28;20101;-65